Latest Weather Observations for Normanton

IDQ60801

Issued at 6:05 pm EST Saturday 2 August 2014 (issued every 30 minutes, with the page automatically refreshed every 10 minutes)

About weather observations | Map of weather stations | Latest weather observations for QLD | Other Formats
Station Details ID: 029063 Name: NORMANTON AIRPORT Lat: -17.69 Lon: 141.07 Height: 18.42 m
Data from the previous 72 hours. | See also: Recent months at Normanton
Date/Time
EST
Temp
°C
App
Temp
°C
Dew
Point
Rel
Hum
%
Delta-T
°C
Wind Press
QNH
hPa
Press
MSL
hPa
Rain
since 9 am
mm
Dir
 
Spd
km/h
Gust
km/h
Spd
kts
Gust
kts
02/06:00pm 28.5 22.9 1.1 17 13.2 S 20 28 11 15 1015.8 1015.7 0.4
02/05:30pm 29.2 23.2 0.8 16 13.7 S 22 33 12 18 1015.5 - 0.4
02/05:00pm 29.1 22.7 0.7 16 13.6 SSE 24 35 13 19 1015.1 - 0.4
02/04:30pm 29.3 23.7 0.9 16 13.7 S 20 32 11 17 1014.9 - 0.4
02/04:00pm 29.8 24.4 1.3 16 13.9 SSE 19 32 10 17 1015.0 - 0.4
02/03:30pm 29.6 23.6 1.1 16 13.8 SSE 22 32 12 17 1015.0 - 0.4
02/03:00pm 29.0 23.2 2.3 18 13.2 SSE 22 30 12 16 1015.4 1015.3 0.4
02/02:30pm 28.9 22.6 1.4 17 13.4 S 24 32 13 17 1015.8 - 0.4
02/02:00pm 28.1 21.4 1.6 18 12.8 S 26 37 14 20 1016.3 - 0.4
02/01:30pm 27.4 21.5 1.8 19 12.4 SSE 22 35 12 19 1016.9 - 0.4
02/01:00pm 27.4 21.1 1.8 19 12.4 SSE 24 35 13 19 1017.4 - 0.4
02/12:30pm 26.3 20.1 2.3 21 11.6 SSE 24 39 13 21 1017.9 - 0.4
02/12:00pm 25.6 18.7 2.3 22 11.2 S 28 39 15 21 1018.4 1018.3 0.4
02/11:30am 25.0 18.2 3.0 24 10.7 S 28 35 15 19 1018.8 - 0.4
02/11:00am 24.6 18.6 3.3 25 10.4 SSE 24 37 13 20 1019.2 - 0.4
02/10:30am 23.3 16.2 3.3 27 9.7 SSE 30 43 16 23 1019.5 - 0.4
02/10:00am 22.8 16.1 3.4 28 9.4 SSE 28 41 15 22 1019.4 - 0.4
02/09:30am 21.9 15.5 3.1 29 9.0 SSE 26 37 14 20 1019.5 - 0.4
02/09:00am 20.5 13.0 3.3 32 8.1 SSE 32 43 17 23 1019.1 1019.0 0.0
02/08:35am 20.0 12.8 2.8 32 8.0 SSE 30 48 16 26 1018.8 - 0.0
02/08:30am 19.9 12.3 2.7 32 8.0 SSE 32 48 17 26 1018.8 - 0.0
02/08:00am 19.3 12.8 2.6 33 7.7 SSE 26 37 14 20 1018.6 - 0.0
02/07:30am 18.8 12.7 2.6 34 7.5 SSE 24 30 13 16 1018.6 - 0.0
02/07:00am 19.0 12.5 2.4 33 7.6 SSE 26 39 14 21 1018.4 - 0.0
02/06:30am 19.6 12.6 2.0 31 8.1 SSE 28 39 15 21 1018.1 - 0.0
02/06:00am 20.0 13.4 1.9 30 8.3 SSE 26 37 14 20 1017.8 1017.7 0.0
02/05:30am 20.4 13.4 1.8 29 8.5 SSE 28 37 15 20 1017.4 - 0.0
02/05:00am 20.8 14.4 1.1 27 9.0 SSE 24 33 13 18 1017.1 - 0.0
02/04:30am 21.1 14.1 -0.2 24 9.5 SSE 26 37 14 20 1017.0 - 0.0
02/04:00am 21.5 14.4 -1.1 22 9.9 SSE 26 35 14 19 1016.6 - 0.0
02/03:30am 21.7 14.6 -1.6 21 10.1 S 26 33 14 18 1016.5 - 0.0
02/03:00am 22.4 14.9 -1.6 20 10.5 SSE 28 39 15 21 1016.3 1016.2 0.0
02/02:47am 22.7 14.7 -2.1 19 10.8 S 30 48 16 26 1016.2 - 0.0
02/02:30am 23.2 14.8 -2.4 18 11.1 S 32 44 17 24 1016.2 - 0.0
02/02:00am 23.4 16.3 -1.5 19 11.0 S 26 37 14 20 1016.2 - 0.0
02/01:30am 22.5 16.8 0.4 23 10.0 S 20 24 11 13 1016.2 - 0.0
02/01:00am 23.1 17.5 0.9 23 10.2 SSE 20 26 11 14 1016.2 - 0.0
02/12:30am 22.7 17.8 1.7 25 9.8 S 17 20 9 11 1016.0 - 0.0
02/12:00am 23.1 18.2 2.0 25 9.9 S 17 20 9 11 1015.9 1015.8 0.0
 
Date/Time
EST
Temp
°C
App
Temp
°C
Dew
Point
Rel
Hum
%
Delta-T
°C
Wind Press
QNH
hPa
Press
MSL
hPa
Rain
since 9 am
mm
Dir
 
Spd
km/h
Gust
km/h
Spd
kts
Gust
kts
01/11:30pm 23.5 18.9 1.8 24 10.2 S 15 19 8 10 1016.1 - 0.0
01/11:00pm 24.3 19.0 1.9 23 10.6 S 19 22 10 12 1016.1 - 0.0
01/10:30pm 24.5 19.6 2.0 23 10.7 S 17 20 9 11 1016.0 - 0.0
01/10:00pm 24.8 20.4 2.9 24 10.6 S 15 20 8 11 1016.1 - 0.0
01/09:30pm 25.0 20.7 3.0 24 10.7 S 15 17 8 9 1016.0 - 0.0
01/09:00pm 24.1 20.6 5.5 30 9.4 SSW 13 15 7 8 1015.9 1015.8 0.0
01/08:30pm 23.4 23.0 13.0 52 6.0 W 7 9 4 5 1015.5 - 0.0
01/08:00pm 24.6 24.0 13.5 50 6.5 WNW 9 11 5 6 1015.2 - 0.0
01/07:30pm 26.1 25.7 12.9 44 7.7 W 7 11 4 6 1014.6 - 0.0
01/07:00pm 26.9 26.0 12.5 40 8.4 WNW 9 13 5 7 1014.2 - 0.0
01/06:30pm 29.0 26.3 5.8 23 12.2 SSW 9 13 5 7 1013.6 - 0.0
01/06:00pm 31.2 27.7 5.6 20 13.5 S 13 20 7 11 1013.4 1013.3 0.0
01/05:30pm 32.0 28.1 5.5 19 14.1 S 15 20 8 11 1013.3 - 0.0
01/05:00pm 32.7 29.3 6.1 19 14.3 S 13 20 7 11 1013.0 - 0.0
01/04:30pm 32.6 28.1 6.0 19 14.3 S 19 37 10 20 1012.9 - 0.0
01/04:00pm 33.2 29.7 7.2 20 14.3 SSE 15 20 8 11 1012.9 - 0.0
01/03:30pm 32.3 30.2 6.5 20 13.9 ESE 7 20 4 11 1013.0 - 0.0
01/03:00pm 32.6 28.6 6.7 20 14.1 S 17 30 9 16 1013.3 1013.2 0.0
01/02:30pm 32.1 29.5 7.7 22 13.4 SSE 11 24 6 13 1013.8 - 0.0
01/02:00pm 32.0 27.6 7.6 22 13.4 S 20 26 11 14 1014.4 - 0.0
01/01:30pm 31.2 26.8 7.6 23 12.9 SSE 20 30 11 16 1015.0 - 0.0
01/01:00pm 31.0 27.7 8.1 24 12.6 SSE 15 22 8 12 1015.6 - 0.0
01/12:30pm 30.2 26.6 6.8 23 12.6 SSE 15 30 8 16 1016.0 - 0.0
01/12:00pm 29.8 26.3 7.1 24 12.2 SSE 15 20 8 11 1016.6 1016.5 0.0
01/11:30am 29.4 26.1 7.9 26 11.7 SE 15 26 8 14 1016.9 - 0.0
01/11:00am 27.9 25.1 8.7 30 10.5 SE 13 28 7 15 1017.2 - 0.0
01/10:30am 27.3 24.5 8.7 31 10.2 SSE 13 20 7 11 1017.4 - 0.0
01/10:00am 26.8 23.5 9.6 34 9.5 SSE 17 28 9 15 1017.4 - 0.0
01/09:30am 25.5 21.9 11.7 42 7.9 S 22 28 12 15 1017.1 - 0.0
01/09:00am 23.8 23.2 16.6 64 4.4 S 15 20 8 11 1017.0 1016.9 0.0
01/08:30am 21.3 21.1 17.5 79 2.3 S 15 20 8 11 1016.9 - 0.0
01/08:00am 19.2 20.5 17.2 88 1.2 S 6 9 3 5 1016.6 - 0.0
01/07:30am 18.0 17.5 17.0 94 0.6 S 15 19 8 10 1016.3 - 0.0
01/07:00am 17.7 16.9 17.1 96 0.4 S 17 19 9 10 1016.0 - 0.0
01/06:30am 18.0 17.5 17.7 98 0.2 S 17 19 9 10 1015.7 - 0.0
01/06:00am 17.9 18.5 17.6 98 0.2 S 11 13 6 7 1015.3 1015.2 0.0
01/05:30am 18.3 18.9 17.8 97 0.3 S 11 13 6 7 1015.1 - 0.0
01/05:00am 18.4 19.5 17.9 97 0.3 S 9 11 5 6 1014.8 - 0.0
01/04:30am 18.4 19.4 17.8 96 0.4 S 9 11 5 6 1014.4 - 0.0
01/04:00am 18.6 20.0 17.9 96 0.4 SSW 7 9 4 5 1014.3 - 0.0
01/03:30am 19.0 20.5 18.0 94 0.6 SSW 7 9 4 5 1014.3 - 0.0
01/03:00am 18.9 20.0 18.1 95 0.5 S 9 11 5 6 1014.4 1014.3 0.0
01/02:30am 19.2 22.0 18.0 93 0.7 CALM 0 0 0 0 1014.6 - 0.0
01/02:00am 19.1 20.7 17.8 92 0.8 SW 6 7 3 4 1014.6 - 0.0
01/01:30am 19.8 22.6 17.9 89 1.2 CALM 0 0 0 0 1014.7 - 0.0
01/01:00am 20.2 23.3 18.7 91 0.9 CALM 0 0 0 0 1014.9 - 0.0
01/12:30am 20.0 22.7 17.8 87 1.4 CALM 0 0 0 0 1014.9 - 0.0
01/12:00am 20.5 22.1 17.9 85 1.6 WNW 6 6 3 3 1014.9 1014.8 0.0
 
Date/Time
EST
Temp
°C
App
Temp
°C
Dew
Point
Rel
Hum
%
Delta-T
°C
Wind Press
QNH
hPa
Press
MSL
hPa
Rain
since 9 am
mm
Dir
 
Spd
km/h
Gust
km/h
Spd
kts
Gust
kts
31/11:30pm 20.7 21.9 17.3 81 2.1 NW 7 9 4 5 1015.0 - 0.0
31/11:00pm 21.1 22.3 17.3 79 2.3 NW 7 9 4 5 1015.2 - 0.0
31/10:30pm 21.3 22.6 17.5 79 2.3 NW 7 9 4 5 1015.3 - 0.0
31/10:00pm 21.6 22.4 17.4 77 2.6 NW 9 9 5 5 1015.4 - 0.0
31/09:30pm 21.9 22.5 16.8 73 3.1 NNW 9 11 5 6 1015.4 - 0.0
31/09:00pm 22.5 23.0 16.5 69 3.6 NW 9 11 5 6 1015.4 1015.3 0.0
31/08:30pm 22.8 22.9 16.6 68 3.8 NW 11 13 6 7 1015.3 - 0.0
31/08:00pm 23.3 23.4 16.6 66 4.1 WNW 11 15 6 8 1015.1 - 0.0
31/07:30pm 23.9 24.0 16.4 63 4.6 W 11 13 6 7 1014.7 - 0.0
31/07:00pm 24.6 23.8 16.1 59 5.2 WNW 15 22 8 12 1014.3 - 0.0
31/06:30pm 25.3 23.5 15.6 55 5.9 WNW 19 22 10 12 1014.3 - 0.0
31/06:00pm 26.4 23.6 15.4 50 6.7 WNW 24 30 13 16 1014.1 1014.0 0.0
31/05:30pm 27.6 24.8 15.3 47 7.5 NW 24 30 13 16 1013.9 - 0.0
31/05:00pm 28.3 25.3 14.9 44 8.1 NW 24 32 13 17 1013.7 - 0.0
31/04:30pm 28.9 26.4 15.1 43 8.4 NW 22 28 12 15 1013.5 - 0.0
31/04:00pm 30.1 27.7 15.4 41 9.1 NW 22 30 12 16 1013.5 - 0.0
31/03:30pm 30.1 28.1 15.4 41 9.1 WNW 20 26 11 14 1013.6 - 0.0
31/03:00pm 30.6 28.8 15.5 40 9.3 WNW 19 28 10 15 1013.8 1013.7 0.0
31/02:30pm 29.6 27.6 15.0 41 8.9 NNW 19 24 10 13 1014.1 - 0.0
31/02:00pm 30.9 30.9 12.3 32 11.0 W 4 9 2 5 1014.4 - 0.0
31/01:30pm 29.6 28.4 12.9 35 9.9 NNW 11 15 6 8 1015.0 - 0.0
31/01:00pm 29.7 29.3 13.0 35 9.9 NNW 7 17 4 9 1015.4 - 0.0
31/12:30pm 29.1 26.8 14.1 40 9.0 NW 19 24 10 13 1015.8 - 0.0
31/12:00pm 28.7 27.4 14.9 43 8.4 N 15 22 8 12 1016.4 1016.3 0.0
31/11:30am 28.0 27.2 15.0 45 7.9 NNE 13 22 7 12 1016.8 - 0.0
31/11:00am 27.0 25.4 15.1 48 7.2 N 17 24 9 13 1017.1 - 0.0
31/10:30am 26.2 24.3 15.3 51 6.6 N 19 26 10 14 1017.4 - 0.0
31/10:00am 25.4 23.6 15.4 54 6.0 N 19 33 10 18 1017.4 - 0.0
31/09:30am 24.5 22.6 15.7 58 5.3 N 20 32 11 17 1017.3 - 0.0
31/09:00am 23.0 22.7 16.5 67 4.0 N 13 20 7 11 1017.2 1017.1 0.0
31/08:30am 21.2 20.5 16.4 74 2.9 N 15 20 8 11 1017.0 - 0.0
31/08:00am 19.8 20.6 17.4 86 1.5 N 9 13 5 7 1016.8 - 0.0
31/07:30am 17.8 19.2 17.3 97 0.3 N 6 9 3 5 1016.5 - 0.0
31/07:00am 17.3 18.3 16.8 97 0.3 NNE 7 9 4 5 1016.3 - 0.0
31/06:30am 17.6 18.7 16.5 93 0.7 NW 6 7 3 4 1015.9 - 0.0
31/06:00am 18.6 19.6 16.9 90 1.0 NNE 7 11 4 6 1015.6 1015.5 0.0
31/05:30am 18.1 19.1 16.8 92 0.8 N 7 13 4 7 1015.6 - 0.0
31/05:00am 18.5 18.9 17.2 92 0.8 ENE 11 24 6 13 1015.9 - 0.0
31/04:30am 18.0 19.5 18.0 100 0.0 W 7 9 4 5 1014.8 - 0.0
31/04:00am 18.2 19.8 18.2 100 0.0 SW 7 9 4 5 1014.8 - 0.0
31/03:30am 18.5 19.7 18.3 99 0.1 SW 9 13 5 7 1014.7 - 0.0
31/03:00am 18.7 19.6 18.5 99 0.1 WSW 11 13 6 7 1014.9 1014.8 0.0
31/02:30am 18.8 19.8 18.6 99 0.1 WSW 11 13 6 7 1014.9 - 0.0
31/02:00am 18.8 19.8 18.6 99 0.1 WSW 11 13 6 7 1015.2 - 0.0
31/01:30am 18.7 20.1 17.9 95 0.5 WSW 7 11 4 6 1015.5 - 0.0
31/01:00am 18.7 19.9 18.2 97 0.3 WSW 9 11 5 6 1015.6 - 0.0
31/12:30am 18.7 21.5 17.9 95 0.5 CALM 0 0 0 0 1015.8 - 0.0
31/12:00am 18.6 19.7 16.6 88 1.2 SW 6 7 3 4 1016.0 1015.9 0.0
 
Date/Time
EST
Temp
°C
App
Temp
°C
Dew
Point
Rel
Hum
%
Delta-T
°C
Wind Press
QNH
hPa
Press
MSL
hPa
Rain
since 9 am
mm
Dir
 
Spd
km/h
Gust
km/h
Spd
kts
Gust
kts
30/11:30pm 19.4 21.4 17.0 86 1.5 SSW 2 9 1 5 1016.1 - 0.0
30/11:00pm 20.0 20.9 16.6 81 2.1 NNW 7 9 4 5 1016.1 - 0.0
30/10:30pm 20.4 21.1 17.0 81 2.1 NNW 9 13 5 7 1016.3 - 0.0
30/10:00pm 20.8 21.5 17.0 79 2.3 W 9 13 5 7 1016.1 - 0.0
30/09:30pm 21.4 22.0 16.8 75 2.8 W 9 13 5 7 1016.1 - 0.0
30/09:00pm 21.7 22.0 16.0 70 3.4 WNW 9 11 5 6 1016.1 1016.0 0.0
30/08:30pm 22.4 22.4 16.2 68 3.8 WNW 11 15 6 8 1015.8 - 0.0
30/08:00pm 22.9 22.8 16.0 65 4.2 WNW 11 15 6 8 1015.6 - 0.0
30/07:30pm 23.6 23.1 15.9 62 4.7 WNW 13 17 7 9 1015.2 - 0.0
30/07:00pm 24.4 23.8 15.6 58 5.3 WNW 13 15 7 8 1014.9 - 0.0
30/06:30pm 25.3 24.4 15.9 56 5.7 WNW 15 19 8 10 1014.6 - 0.0

Other Formats:

Comma delimited format used in spreadsheet applications
http://www.bom.gov.au/fwo/IDQ60801/IDQ60801.94266.axf

JavaScript Object Notation format (JSON) in row-major order
http://www.bom.gov.au/fwo/IDQ60801/IDQ60801.94266.json